Terminal Aerodrome Forecast
Issued by NWS

Home | Current Version | Previous Version | Text Only | Print | Product List | Glossary Off
Versions: 1 2 3 4 5 6 7 8 9 10 11 12 13

000
FTUS41 KCLE 251131
TAFFDY
TAF
KFDY 251131Z 2512/2612 25008KT P6SM VCSH SCT035 BKN050 OVC120
     FM251600 26010KT P6SM SCT035 BKN120
      TEMPO 2516/2520 BKN035
     FM260000 32005KT P6SM SCT250
      TEMPO 2609/2612 5SM BR=

USA.gov is the U.S. government's official web portal to all federal, state and local government web resources and services.